createdAt,value
2018-02-23T00:01:31.881Z,-1.10
2018-02-23T00:03:59.434Z,-1.10
2018-02-23T00:06:26.995Z,-1.10
2018-02-23T00:08:54.543Z,-1.10
2018-02-23T00:11:22.105Z,-1.10
2018-02-23T00:13:49.646Z,-1.10
2018-02-23T00:16:18.003Z,-1.20
2018-02-23T00:18:45.598Z,-1.20
2018-02-23T00:21:13.147Z,-1.10
2018-02-23T00:23:40.706Z,-1.20
2018-02-23T00:26:09.014Z,-1.10
2018-02-23T00:28:36.586Z,-1.20
2018-02-23T00:31:04.138Z,-1.20
2018-02-23T00:33:31.679Z,-1.20
2018-02-23T00:35:59.244Z,-1.20
2018-02-23T00:38:37.339Z,-1.20
2018-02-23T00:41:04.912Z,-1.20
2018-02-23T00:43:32.447Z,-1.20
2018-02-23T00:46:00.780Z,-1.20
2018-02-23T00:48:28.326Z,-1.20
2018-02-23T00:50:55.888Z,-1.20
2018-02-23T00:53:23.460Z,-1.30
2018-02-23T00:55:51.007Z,-1.30
2018-02-23T00:58:18.583Z,-1.20
2018-02-23T01:00:46.122Z,-1.30
2018-02-23T01:03:13.670Z,-1.30
2018-02-23T01:05:41.242Z,-1.30
2018-02-23T01:08:08.807Z,-1.30
2018-02-23T01:10:36.366Z,-1.30
2018-02-23T01:13:03.905Z,-1.30
2018-02-23T01:15:31.489Z,-1.30
2018-02-23T01:17:59.036Z,-1.30
2018-02-23T01:20:26.610Z,-1.30
2018-02-23T01:22:54.198Z,-1.30
2018-02-23T01:25:21.762Z,-1.30
2018-02-23T01:27:49.338Z,-1.30
2018-02-23T01:30:17.648Z,-1.30
2018-02-23T01:32:45.805Z,-1.30
2018-02-23T01:35:14.136Z,-1.30
2018-02-23T01:37:41.675Z,-1.30
2018-02-23T01:40:09.249Z,-1.40
2018-02-23T01:42:36.833Z,-1.30
2018-02-23T01:45:04.379Z,-1.40
2018-02-23T01:47:31.932Z,-1.40
2018-02-23T01:49:59.482Z,-1.40
2018-02-23T01:52:27.046Z,-1.40
2018-02-23T01:54:54.592Z,-1.40
2018-02-23T01:57:22.166Z,-1.40
2018-02-23T01:59:49.724Z,-1.40
2018-02-23T02:02:17.269Z,-1.40
2018-02-23T02:04:44.833Z,-1.40
2018-02-23T02:07:12.375Z,-1.40
2018-02-23T02:09:39.952Z,-1.40
2018-02-23T02:12:07.499Z,-1.50
2018-02-23T02:14:35.078Z,-1.50
2018-02-23T02:17:02.656Z,-1.50
2018-02-23T02:19:30.202Z,-1.50
2018-02-23T02:21:57.762Z,-1.60
2018-02-23T02:24:29.296Z,-1.60
2018-02-23T02:26:56.868Z,-1.60
2018-02-23T02:29:24.411Z,-1.60
2018-02-23T02:31:51.950Z,-1.60
2018-02-23T02:34:20.290Z,-1.60
2018-02-23T02:36:47.835Z,-1.60
2018-02-23T02:39:15.421Z,-1.70
2018-02-23T02:41:42.972Z,-1.60
2018-02-23T02:44:11.288Z,-1.70
2018-02-23T02:46:39.639Z,-1.70
2018-02-23T02:49:07.184Z,-1.70
2018-02-23T02:51:34.730Z,-1.80
2018-02-23T02:54:02.305Z,-1.80
2018-02-23T02:56:29.854Z,-1.80
2018-02-23T02:58:57.408Z,-1.80
2018-02-23T03:01:24.992Z,-1.80
2018-02-23T03:03:52.542Z,-1.90
2018-02-23T03:06:20.121Z,-1.90
2018-02-23T03:08:47.684Z,-1.90
2018-02-23T03:11:15.246Z,-2.00
2018-02-23T03:13:42.810Z,-2.00
2018-02-23T03:16:10.358Z,-2.00
2018-02-23T03:18:39.437Z,-2.00
2018-02-23T03:21:06.984Z,-2.10
2018-02-23T03:23:34.529Z,-2.00
2018-02-23T03:26:02.092Z,-2.00
2018-02-23T03:28:29.638Z,-2.00
2018-02-23T03:30:57.211Z,-2.00
2018-02-23T03:33:24.764Z,-2.10
2018-02-23T03:35:52.306Z,-2.20
2018-02-23T03:38:20.653Z,-2.20
2018-02-23T03:40:48.203Z,-2.20
2018-02-23T03:43:15.750Z,-2.20
2018-02-23T03:45:43.326Z,-2.20
2018-02-23T03:48:10.873Z,-2.20
2018-02-23T03:50:38.463Z,-2.30
2018-02-23T03:53:06.018Z,-2.20
2018-02-23T03:55:33.568Z,-2.20
2018-02-23T03:58:01.143Z,-2.30
2018-02-23T04:00:28.686Z,-2.30
2018-02-23T04:02:56.226Z,-2.30
2018-02-23T04:05:23.794Z,-2.30
2018-02-23T04:07:51.344Z,-2.20
2018-02-23T04:10:18.886Z,-2.30
2018-02-23T04:12:46.476Z,-2.40
2018-02-23T04:15:14.793Z,-2.40
2018-02-23T04:17:42.369Z,-2.40
2018-02-23T04:20:10.674Z,-2.50
2018-02-23T04:22:38.219Z,-2.50
2018-02-23T04:25:05.799Z,-2.50
2018-02-23T04:27:33.367Z,-2.50
2018-02-23T04:30:00.916Z,-2.50
2018-02-23T04:32:28.479Z,-2.50
2018-02-23T04:34:56.030Z,-2.50
2018-02-23T04:37:23.587Z,-2.50
2018-02-23T04:39:51.159Z,-2.60
2018-02-23T04:42:18.719Z,-2.60
2018-02-23T04:44:46.267Z,-2.60
2018-02-23T04:47:13.826Z,-2.60
2018-02-23T04:49:41.370Z,-2.70
2018-02-23T04:52:08.966Z,-2.70
2018-02-23T04:54:36.516Z,-2.80
2018-02-23T04:57:04.077Z,-2.80
2018-02-23T04:59:31.642Z,-2.80
2018-02-23T05:01:59.186Z,-2.80
2018-02-23T05:04:26.739Z,-2.80
2018-02-23T05:06:54.325Z,-2.90
2018-02-23T05:09:21.870Z,-2.90
2018-02-23T05:11:49.425Z,-3.00
2018-02-23T05:14:16.986Z,-3.00
2018-02-23T05:16:44.526Z,-3.00
2018-02-23T05:19:12.856Z,-3.00
2018-02-23T05:21:41.169Z,-3.10
2018-02-23T05:24:08.714Z,-3.10
2018-02-23T05:26:36.286Z,-3.00
2018-02-23T05:29:04.611Z,-3.10
2018-02-23T05:31:32.158Z,-3.10
2018-02-23T05:33:59.753Z,-3.10
2018-02-23T05:36:27.290Z,-3.10
2018-02-23T05:38:54.830Z,-3.20
2018-02-23T05:41:23.167Z,-3.20
2018-02-23T05:43:50.714Z,-3.20
2018-02-23T05:46:19.044Z,-3.30
2018-02-23T05:48:47.356Z,-3.30
2018-02-23T05:51:20.766Z,-3.30
2018-02-23T05:53:49.075Z,-3.30
2018-02-23T05:56:16.636Z,-3.30
2018-02-23T05:58:44.218Z,-3.30
2018-02-23T06:01:12.521Z,-3.40
2018-02-23T06:03:40.074Z,-3.40
2018-02-23T06:06:07.642Z,-3.40
2018-02-23T06:08:35.201Z,-3.50
2018-02-23T06:11:02.752Z,-3.60
2018-02-23T06:13:30.317Z,-3.60
2018-02-23T06:16:03.474Z,-3.70
2018-02-23T06:18:37.498Z,-3.80
2018-02-23T06:21:05.851Z,-3.80
2018-02-23T06:23:33.417Z,-3.80
2018-02-23T06:26:00.968Z,-3.80
2018-02-23T06:28:28.511Z,-3.80
2018-02-23T06:30:56.092Z,-3.80
2018-02-23T06:33:23.639Z,-3.80
2018-02-23T06:35:51.199Z,-3.80
2018-02-23T06:38:18.742Z,-3.80
2018-02-23T06:40:47.052Z,-3.80
2018-02-23T06:43:14.606Z,-3.80
2018-02-23T06:45:42.176Z,-3.80
2018-02-23T06:48:09.748Z,-3.80
2018-02-23T06:50:38.064Z,-3.80
2018-02-23T06:53:05.608Z,-3.80
2018-02-23T06:55:33.210Z,-3.80
2018-02-23T06:58:00.742Z,-3.80
2018-02-23T07:00:28.296Z,-3.80
2018-02-23T07:02:55.883Z,-3.80
2018-02-23T07:05:23.437Z,-3.80
2018-02-23T07:07:53.934Z,-3.80
2018-02-23T07:10:21.532Z,-3.80
2018-02-23T07:12:49.087Z,-3.80
2018-02-23T07:15:16.700Z,-3.80
2018-02-23T07:17:46.014Z,-3.80
2018-02-23T07:20:14.442Z,-3.90
2018-02-23T07:22:41.990Z,-3.80
2018-02-23T07:25:09.558Z,-3.70
2018-02-23T07:27:37.138Z,-3.60
2018-02-23T07:30:04.705Z,-3.60
2018-02-23T07:32:33.034Z,-3.40
2018-02-23T07:35:00.580Z,-3.50
2018-02-23T07:37:28.145Z,-3.40
2018-02-23T07:39:55.695Z,-3.40
2018-02-23T07:42:23.276Z,-3.40
2018-02-23T07:44:50.853Z,-3.40
2018-02-23T07:47:19.188Z,-3.30
2018-02-23T07:49:47.495Z,-3.40
2018-02-23T07:52:15.088Z,-3.40
2018-02-23T07:54:42.635Z,-3.40
2018-02-23T07:57:10.173Z,-3.50
2018-02-23T07:59:37.758Z,-3.50
2018-02-23T08:02:05.306Z,-3.50
2018-02-23T08:04:32.864Z,-3.40
2018-02-23T08:07:00.431Z,-3.40
2018-02-23T08:09:27.980Z,-3.40
2018-02-23T08:11:55.555Z,-3.40
2018-02-23T08:14:23.111Z,-3.30
2018-02-23T08:16:50.682Z,-3.30
2018-02-23T08:19:19.049Z,-3.30
2018-02-23T08:21:46.603Z,-3.30
2018-02-23T08:24:14.179Z,-3.30
2018-02-23T08:26:41.721Z,-3.30
2018-02-23T08:29:09.266Z,-3.20
2018-02-23T08:31:36.830Z,-3.20
2018-02-23T08:34:04.363Z,-3.20
2018-02-23T08:36:32.684Z,-3.10
2018-02-23T08:39:00.255Z,-3.10
2018-02-23T08:41:27.806Z,-3.00
2018-02-23T08:43:55.373Z,-2.90
2018-02-23T08:46:22.946Z,-2.90
2018-02-23T08:48:50.497Z,-2.70
2018-02-23T08:51:18.088Z,-2.80
2018-02-23T08:53:46.404Z,-2.60
2018-02-23T08:56:13.992Z,-2.60
2018-02-23T08:58:41.558Z,-2.60
2018-02-23T09:01:09.118Z,-2.50
2018-02-23T09:03:36.683Z,-2.40
2018-02-23T09:06:04.247Z,-2.40
2018-02-23T09:08:31.806Z,-2.30
2018-02-23T09:10:59.403Z,-2.30
2018-02-23T09:13:27.709Z,-2.30
2018-02-23T09:15:55.278Z,-2.30
2018-02-23T09:18:22.849Z,-2.30
2018-02-23T09:20:50.427Z,-2.50
2018-02-23T09:23:17.982Z,-2.50
2018-02-23T09:25:45.572Z,-2.40
2018-02-23T09:28:13.879Z,-2.10
2018-02-23T09:30:41.421Z,-2.20
2018-02-23T09:33:09.780Z,-1.80
2018-02-23T09:35:38.106Z,-1.70
2018-02-23T09:38:05.661Z,-1.70
2018-02-23T09:40:33.230Z,-1.80
2018-02-23T09:43:00.787Z,-1.80
2018-02-23T09:45:28.342Z,-1.80
2018-02-23T09:47:55.942Z,-1.70
2018-02-23T09:50:23.510Z,-1.60
2018-02-23T09:52:51.069Z,-1.50
2018-02-23T09:55:18.660Z,-1.40
2018-02-23T09:57:46.250Z,-1.30
2018-02-23T10:00:13.792Z,-1.30
2018-02-23T10:02:41.373Z,-1.30
2018-02-23T10:05:08.918Z,-1.20
2018-02-23T10:07:36.471Z,-1.20
2018-02-23T10:10:04.055Z,-1.30
2018-02-23T10:12:31.606Z,-1.30
2018-02-23T10:14:59.195Z,-1.40
2018-02-23T10:17:26.757Z,-1.40
2018-02-23T10:19:54.345Z,-1.30
2018-02-23T10:22:22.690Z,-1.40
2018-02-23T10:24:50.247Z,-1.40
2018-02-23T10:27:17.825Z,-1.40
2018-02-23T10:29:45.383Z,-1.30
2018-02-23T10:32:13.728Z,-1.10
2018-02-23T10:34:41.302Z,-1.10
2018-02-23T10:37:08.874Z,-1.00
2018-02-23T10:39:36.437Z,-0.90
2018-02-23T10:42:03.979Z,-0.80
2018-02-23T10:44:32.323Z,-1.00
2018-02-23T10:46:59.881Z,-1.00
2018-02-23T10:49:27.437Z,-1.00
2018-02-23T10:51:55.059Z,-1.20
2018-02-23T10:54:22.607Z,-1.20
2018-02-23T10:56:50.156Z,-1.20
2018-02-23T10:59:17.735Z,-1.10
2018-02-23T11:01:45.300Z,-1.00
2018-02-23T11:04:12.859Z,-1.10
2018-02-23T11:06:40.440Z,-1.10
2018-02-23T11:09:08.773Z,-1.10
2018-02-23T11:11:36.371Z,-1.10
2018-02-23T11:14:03.955Z,-1.00
2018-02-23T11:16:32.268Z,-0.70
2018-02-23T11:18:59.858Z,-0.70
2018-02-23T11:21:27.435Z,-0.60
2018-02-23T11:23:54.996Z,-0.50
2018-02-23T11:26:22.575Z,-0.40
2018-02-23T11:28:50.130Z,-0.30
2018-02-23T11:31:24.935Z,-0.10
2018-02-23T11:33:52.508Z,-0.20
2018-02-23T11:36:20.058Z,0.00
2018-02-23T11:38:47.626Z,-0.10
2018-02-23T11:41:15.182Z,-0.10
2018-02-23T11:43:42.752Z,-0.10
2018-02-23T11:46:11.098Z,0.10
2018-02-23T11:48:38.639Z,0.10
2018-02-23T11:51:06.195Z,-0.10
2018-02-23T11:53:33.787Z,-0.10
2018-02-23T11:56:01.363Z,0.00
2018-02-23T11:58:28.930Z,0.00
2018-02-23T12:00:57.274Z,0.00
2018-02-23T12:03:24.838Z,0.00
2018-02-23T12:05:52.387Z,0.00
2018-02-23T12:08:19.956Z,0.00
2018-02-23T12:10:47.496Z,0.00
2018-02-23T12:13:15.044Z,0.00
2018-02-23T12:15:42.803Z,-0.10
2018-02-23T12:18:10.370Z,0.00
2018-02-23T12:20:38.269Z,0.00
2018-02-23T12:23:05.835Z,0.00
2018-02-23T12:25:33.374Z,0.10
2018-02-23T12:28:00.955Z,0.20
2018-02-23T12:30:28.506Z,0.20
2018-02-23T12:32:56.064Z,0.20
2018-02-23T12:35:23.634Z,0.30
2018-02-23T12:37:51.197Z,0.30
2018-02-23T12:40:18.832Z,0.30
2018-02-23T12:42:47.138Z,0.10
2018-02-23T12:45:14.700Z,0.00
2018-02-23T12:47:42.312Z,0.00
2018-02-23T12:50:09.897Z,0.20
2018-02-23T12:52:37.450Z,0.30
2018-02-23T12:55:05.019Z,0.50
2018-02-23T12:57:32.563Z,0.60
2018-02-23T13:00:00.132Z,0.70
2018-02-23T13:02:27.705Z,0.80
2018-02-23T13:04:55.258Z,0.90
2018-02-23T13:07:22.835Z,0.80
2018-02-23T13:09:50.392Z,0.80
2018-02-23T13:12:18.026Z,0.80
2018-02-23T13:14:51.317Z,0.90
2018-02-23T13:17:18.862Z,1.00
2018-02-23T13:19:47.171Z,1.20
2018-02-23T13:22:14.759Z,1.20
2018-02-23T13:24:42.310Z,1.20
2018-02-23T13:27:15.657Z,1.30
2018-02-23T13:29:43.966Z,1.10
2018-02-23T13:32:11.516Z,1.10
2018-02-23T13:34:39.084Z,1.10
2018-02-23T13:37:06.642Z,1.10
2018-02-23T13:39:34.227Z,1.20
2018-02-23T13:42:01.771Z,1.20
2018-02-23T13:44:29.327Z,1.10
2018-02-23T13:46:56.922Z,1.10
2018-02-23T13:49:24.474Z,1.20
2018-02-23T13:51:52.044Z,1.30
2018-02-23T13:54:21.473Z,1.30
2018-02-23T13:56:49.788Z,1.30
2018-02-23T13:59:17.339Z,1.30
2018-02-23T14:01:44.949Z,1.30
2018-02-23T14:04:12.502Z,1.30
2018-02-23T14:06:40.044Z,1.20
2018-02-23T14:09:07.625Z,1.20
2018-02-23T14:11:35.209Z,1.10
2018-02-23T14:14:03.543Z,1.20
2018-02-23T14:16:31.091Z,1.20
2018-02-23T14:18:58.654Z,1.30
2018-02-23T14:21:26.218Z,1.40
2018-02-23T14:23:53.765Z,1.40
2018-02-23T14:26:21.535Z,1.50
2018-02-23T14:28:49.077Z,1.40
2018-02-23T14:31:16.618Z,1.30
2018-02-23T14:34:05.426Z,1.30
2018-02-23T14:36:32.972Z,1.30
2018-02-23T14:39:00.523Z,1.30
2018-02-23T14:41:28.088Z,1.30
2018-02-23T14:43:55.638Z,1.30
2018-02-23T14:46:23.216Z,1.20
2018-02-23T14:49:02.648Z,1.20
2018-02-23T14:51:31.011Z,1.20
2018-02-23T14:53:58.587Z,1.20
2018-02-23T14:56:26.128Z,1.20
2018-02-23T14:58:53.708Z,1.20
2018-02-23T15:01:21.256Z,1.20
2018-02-23T15:03:48.838Z,1.20
2018-02-23T15:06:16.376Z,1.10
2018-02-23T15:08:43.914Z,1.10
2018-02-23T15:11:12.293Z,1.10
2018-02-23T15:13:40.598Z,1.10
2018-02-23T15:16:08.163Z,1.10
2018-02-23T15:18:35.714Z,1.10
2018-02-23T15:21:03.267Z,1.10
2018-02-23T15:23:30.847Z,1.10
2018-02-23T15:25:59.210Z,1.20
2018-02-23T15:28:26.760Z,1.20
2018-02-23T15:31:06.345Z,1.20
2018-02-23T15:33:33.889Z,1.20
2018-02-23T15:36:01.474Z,1.20
2018-02-23T15:38:29.790Z,1.20
2018-02-23T15:40:58.096Z,1.10
2018-02-23T15:43:25.690Z,1.10
2018-02-23T15:45:53.242Z,1.10
2018-02-23T15:48:26.455Z,1.10
2018-02-23T15:50:54.005Z,1.10
2018-02-23T15:53:21.565Z,1.10
2018-02-23T15:55:49.144Z,1.10
2018-02-23T15:58:19.326Z,1.10
2018-02-23T16:00:46.867Z,1.10
2018-02-23T16:03:14.430Z,1.10
2018-02-23T16:05:41.998Z,1.10
2018-02-23T16:08:09.577Z,1.10
2018-02-23T16:10:37.124Z,1.10
2018-02-23T16:13:04.663Z,1.10
2018-02-23T16:15:35.781Z,1.10
2018-02-23T16:18:04.089Z,1.00
2018-02-23T16:20:31.637Z,1.00
2018-02-23T16:22:59.223Z,1.00
2018-02-23T16:25:26.784Z,1.00
2018-02-23T16:27:54.334Z,1.00
2018-02-23T16:30:21.907Z,0.90
2018-02-23T16:32:49.446Z,0.90
2018-02-23T16:35:16.989Z,0.90
2018-02-23T16:37:45.334Z,0.90
2018-02-23T16:40:12.899Z,0.90
2018-02-23T16:42:40.470Z,0.90
2018-02-23T16:45:27.056Z,0.90
2018-02-23T16:47:54.634Z,0.90
2018-02-23T16:50:22.171Z,0.80
2018-02-23T16:52:49.712Z,0.80
2018-02-23T16:55:18.299Z,0.80
2018-02-23T16:57:45.926Z,0.80
2018-02-23T17:00:14.296Z,0.80
2018-02-23T17:02:41.847Z,0.80
2018-02-23T17:05:11.383Z,0.80
2018-02-23T17:07:38.927Z,0.80
2018-02-23T17:10:07.264Z,0.80
2018-02-23T17:12:34.826Z,0.80
2018-02-23T17:15:04.436Z,0.80
2018-02-23T17:17:31.980Z,0.80
2018-02-23T17:20:00.311Z,0.70
2018-02-23T17:22:32.023Z,0.70
2018-02-23T17:24:59.584Z,0.70
2018-02-23T17:27:27.170Z,0.80
2018-02-23T17:29:54.785Z,0.80
2018-02-23T17:32:22.358Z,0.80
2018-02-23T17:34:50.720Z,0.70
2018-02-23T17:37:18.247Z,0.70
2018-02-23T17:39:46.582Z,0.70
2018-02-23T17:42:23.919Z,0.70
2018-02-23T17:44:52.247Z,0.70
2018-02-23T17:47:20.352Z,0.70
2018-02-23T17:49:48.666Z,0.80
2018-02-23T17:52:35.098Z,0.70
2018-02-23T17:55:02.658Z,0.70
2018-02-23T17:57:30.227Z,0.70
2018-02-23T17:59:57.833Z,0.70
2018-02-23T18:02:25.392Z,0.70
2018-02-23T18:04:53.723Z,0.70
2018-02-23T18:07:21.270Z,0.70
2018-02-23T18:09:48.842Z,0.70
2018-02-23T18:12:16.390Z,0.70
2018-02-23T18:14:43.936Z,0.70
2018-02-23T18:17:11.510Z,0.70
2018-02-23T18:19:39.066Z,0.70
2018-02-23T18:22:06.642Z,0.60
2018-02-23T18:24:44.710Z,0.60
2018-02-23T18:27:13.024Z,0.60
2018-02-23T18:29:41.364Z,0.60
2018-02-23T18:32:08.938Z,0.60
2018-02-23T18:34:36.526Z,0.60
2018-02-23T18:37:04.097Z,0.60
2018-02-23T18:39:31.695Z,0.60
2018-02-23T18:42:03.533Z,0.60
2018-02-23T18:44:31.143Z,0.50
2018-02-23T18:46:58.685Z,0.60
2018-02-23T18:49:27.005Z,0.50
2018-02-23T18:52:07.915Z,0.50
2018-02-23T18:54:35.491Z,0.50
2018-02-23T18:57:03.799Z,0.40
2018-02-23T18:59:31.376Z,0.40
2018-02-23T19:01:59.687Z,0.30
2018-02-23T19:04:31.830Z,0.30
2018-02-23T19:06:59.383Z,0.30
2018-02-23T19:09:26.933Z,0.30
2018-02-23T19:11:54.491Z,0.30
2018-02-23T19:14:22.026Z,0.30
2018-02-23T19:16:51.547Z,0.30
2018-02-23T19:19:24.646Z,0.30
2018-02-23T19:21:52.195Z,0.30
2018-02-23T19:24:19.772Z,0.30
2018-02-23T19:26:48.330Z,0.30
2018-02-23T19:29:33.207Z,0.30
2018-02-23T19:32:05.366Z,0.30
2018-02-23T19:34:34.907Z,0.30
2018-02-23T19:37:03.460Z,0.30
2018-02-23T19:39:49.815Z,0.30
2018-02-23T19:42:17.356Z,0.20
2018-02-23T19:44:52.050Z,0.20
2018-02-23T19:47:19.595Z,0.20
2018-02-23T19:49:50.238Z,0.20
2018-02-23T19:52:23.342Z,0.20
2018-02-23T19:54:54.058Z,0.20
2018-02-23T19:57:22.670Z,0.20
2018-02-23T19:59:50.242Z,0.20
2018-02-23T20:02:21.788Z,0.20
2018-02-23T20:04:49.350Z,0.10
2018-02-23T20:07:16.888Z,0.10
2018-02-23T20:09:48.038Z,0.10
2018-02-23T20:12:15.600Z,0.10
2018-02-23T20:14:43.144Z,0.10
2018-02-23T20:17:10.708Z,0.10
2018-02-23T20:19:38.254Z,0.10
2018-02-23T20:22:05.837Z,0.10
2018-02-23T20:24:33.397Z,0.10
2018-02-23T20:27:00.935Z,0.10
2018-02-23T20:29:28.504Z,0.10
2018-02-23T20:31:56.982Z,0.10
2018-02-23T20:34:24.577Z,0.10
2018-02-23T20:36:52.225Z,0.00
2018-02-23T20:39:19.775Z,0.00
2018-02-23T20:41:47.355Z,0.00
2018-02-23T20:44:15.707Z,0.00
2018-02-23T20:46:43.255Z,0.00
2018-02-23T20:49:10.803Z,0.00
2018-02-23T20:51:38.378Z,0.00
2018-02-23T20:54:05.920Z,0.00
2018-02-23T20:56:36.180Z,0.00
2018-02-23T20:59:03.755Z,0.00
2018-02-23T21:01:31.295Z,0.00
2018-02-23T21:03:58.842Z,0.10
2018-02-23T21:06:27.451Z,0.10
2018-02-23T21:08:54.997Z,0.10
2018-02-23T21:11:22.552Z,0.10
2018-02-23T21:13:50.130Z,0.10
2018-02-23T21:16:17.686Z,0.10
2018-02-23T21:18:45.246Z,0.10
2018-02-23T21:21:20.623Z,0.10
2018-02-23T21:23:48.209Z,0.00
2018-02-23T21:26:16.568Z,0.10
2018-02-23T21:28:44.136Z,0.10
2018-02-23T21:31:11.680Z,0.10
2018-02-23T21:33:39.251Z,0.10
2018-02-23T21:36:06.877Z,0.00
2018-02-23T21:38:34.415Z,0.00
2018-02-23T21:41:01.992Z,0.00
2018-02-23T21:43:29.536Z,0.00
2018-02-23T21:45:57.124Z,0.00
2018-02-23T21:48:32.214Z,0.00
2018-02-23T21:51:00.567Z,-0.10
2018-02-23T21:53:28.114Z,-0.10
2018-02-23T21:55:55.676Z,-0.10
2018-02-23T21:58:23.235Z,-0.10
2018-02-23T22:00:50.792Z,-0.10
2018-02-23T22:03:29.070Z,-0.10
2018-02-23T22:05:56.637Z,-0.10
2018-02-23T22:08:24.200Z,-0.20
2018-02-23T22:10:51.784Z,-0.20
2018-02-23T22:13:19.330Z,-0.20
2018-02-23T22:15:46.881Z,-0.20
2018-02-23T22:18:14.468Z,-0.30
2018-02-23T22:20:42.003Z,-0.30
2018-02-23T22:23:09.560Z,-0.30
2018-02-23T22:25:37.134Z,-0.30
2018-02-23T22:28:04.706Z,-0.30
2018-02-23T22:30:33.019Z,-0.40
2018-02-23T22:33:01.375Z,-0.40
2018-02-23T22:35:28.924Z,-0.40
2018-02-23T22:37:56.477Z,-0.40
2018-02-23T22:40:24.042Z,-0.40
2018-02-23T22:42:51.599Z,-0.50
2018-02-23T22:45:19.174Z,-0.50
2018-02-23T22:47:46.728Z,-0.50
2018-02-23T22:50:14.367Z,-0.50
2018-02-23T22:52:41.954Z,-0.50
2018-02-23T22:55:09.503Z,-0.50
2018-02-23T22:57:37.084Z,-0.60
2018-02-23T23:00:04.652Z,-0.60
2018-02-23T23:02:32.202Z,-0.60
2018-02-23T23:04:59.770Z,-0.60
2018-02-23T23:07:27.365Z,-0.60
2018-02-23T23:09:54.952Z,-0.70
2018-02-23T23:12:22.494Z,-0.70
2018-02-23T23:14:50.040Z,-0.70
2018-02-23T23:17:17.630Z,-0.70
2018-02-23T23:19:45.188Z,-0.80
2018-02-23T23:22:12.741Z,-0.80
2018-02-23T23:24:40.311Z,-0.80
2018-02-23T23:27:07.864Z,-0.80
2018-02-23T23:29:35.429Z,-0.80
2018-02-23T23:32:03.003Z,-0.80
2018-02-23T23:34:30.554Z,-0.80
2018-02-23T23:36:58.135Z,-0.80
2018-02-23T23:39:31.570Z,-0.80
2018-02-23T23:41:59.966Z,-0.90
2018-02-23T23:44:28.338Z,-0.90
2018-02-23T23:46:55.910Z,-0.90
2018-02-23T23:49:23.495Z,-0.90
2018-02-23T23:51:51.043Z,-0.90
2018-02-23T23:54:18.589Z,-1.00
2018-02-23T23:56:46.175Z,-1.00
2018-02-23T23:59:13.723Z,-1.00
